Terminal Aerodrome Forecast
Issued by NWS

Home | Current Version | Previous Version | Text Only | Print | Product List | Glossary On
Versions: 1 2 3 4 5 6 7 8 9 10 11 12
125
FTUS41 KBTV 231731
TAFRUT
TAF
KRUT 231731Z 2318/2418 00000KT P6SM BKN090
     FM240300 13007KT P6SM OVC060
     FM240900 13011KT P6SM VCSH OVC060
     FM241000 13012KT P6SM -SHRA OVC060
     FM241500 12012KT 6SM SHRA BR OVC030=

USA.gov is the U.S. government's official web portal to all federal, state and local government web resources and services.